sensor_id;sensor_type;location;lat;lon;timestamp;temperature;humidity
39021;DHT22;25188;51.958;5.842;2023-03-23T00:01:29;11.70;99.90
39021;DHT22;25188;51.958;5.842;2023-03-23T00:04:02;11.60;99.90
39021;DHT22;25188;51.958;5.842;2023-03-23T00:06:28;11.70;99.90
39021;DHT22;25188;51.958;5.842;2023-03-23T00:09:00;11.70;99.90
39021;DHT22;25188;51.958;5.842;2023-03-23T00:11:30;11.70;99.90
39021;DHT22;25188;51.958;5.842;2023-03-23T00:13:58;11.70;99.90
39021;DHT22;25188;51.958;5.842;2023-03-23T00:16:31;11.70;99.90
39021;DHT22;25188;51.958;5.842;2023-03-23T00:19:00;11.70;99.90
39021;DHT22;25188;51.958;5.842;2023-03-23T00:21:30;11.70;99.90
39021;DHT22;25188;51.958;5.842;2023-03-23T00:24:05;11.70;99.90
39021;DHT22;25188;51.958;5.842;2023-03-23T00:26:33;11.80;99.90
39021;DHT22;25188;51.958;5.842;2023-03-23T00:29:00;11.80;99.90
39021;DHT22;25188;51.958;5.842;2023-03-23T00:31:26;11.80;99.90
39021;DHT22;25188;51.958;5.842;2023-03-23T00:33:57;11.80;99.90
39021;DHT22;25188;51.958;5.842;2023-03-23T00:36:23;11.70;99.90
39021;DHT22;25188;51.958;5.842;2023-03-23T00:38:49;11.80;99.90
39021;DHT22;25188;51.958;5.842;2023-03-23T00:41:15;11.80;99.90
39021;DHT22;25188;51.958;5.842;2023-03-23T00:43:41;11.80;99.90
39021;DHT22;25188;51.958;5.842;2023-03-23T00:46:06;11.80;99.90
39021;DHT22;25188;51.958;5.842;2023-03-23T00:48:38;11.80;99.90
39021;DHT22;25188;51.958;5.842;2023-03-23T00:51:10;11.80;99.90
39021;DHT22;25188;51.958;5.842;2023-03-23T00:53:36;11.80;99.90
39021;DHT22;25188;51.958;5.842;2023-03-23T00:56:01;11.80;99.90
39021;DHT22;25188;51.958;5.842;2023-03-23T00:58:27;11.80;99.90
39021;DHT22;25188;51.958;5.842;2023-03-23T01:00:53;11.90;99.90
39021;DHT22;25188;51.958;5.842;2023-03-23T01:03:19;11.90;99.90
39021;DHT22;25188;51.958;5.842;2023-03-23T01:05:45;11.90;99.90
39021;DHT22;25188;51.958;5.842;2023-03-23T01:08:13;11.90;99.90
39021;DHT22;25188;51.958;5.842;2023-03-23T01:10:39;11.90;99.90
39021;DHT22;25188;51.958;5.842;2023-03-23T01:13:06;11.90;99.90
39021;DHT22;25188;51.958;5.842;2023-03-23T01:15:32;11.80;99.90
39021;DHT22;25188;51.958;5.842;2023-03-23T01:17:58;11.90;99.90
39021;DHT22;25188;51.958;5.842;2023-03-23T01:20:24;11.80;99.90
39021;DHT22;25188;51.958;5.842;2023-03-23T01:22:52;11.80;99.90
39021;DHT22;25188;51.958;5.842;2023-03-23T01:25:18;11.80;99.90
39021;DHT22;25188;51.958;5.842;2023-03-23T01:27:44;11.80;99.90
39021;DHT22;25188;51.958;5.842;2023-03-23T01:30:11;11.80;99.90
39021;DHT22;25188;51.958;5.842;2023-03-23T01:32:38;11.80;99.90
39021;DHT22;25188;51.958;5.842;2023-03-23T01:35:03;11.80;99.90
39021;DHT22;25188;51.958;5.842;2023-03-23T01:37:30;11.80;99.90
39021;DHT22;25188;51.958;5.842;2023-03-23T01:39:57;11.90;99.90
39021;DHT22;25188;51.958;5.842;2023-03-23T01:42:23;11.90;99.90
39021;DHT22;25188;51.958;5.842;2023-03-23T01:47:15;11.90;99.90
39021;DHT22;25188;51.958;5.842;2023-03-23T01:49:46;11.90;99.90
39021;DHT22;25188;51.958;5.842;2023-03-23T01:52:20;11.90;99.90
39021;DHT22;25188;51.958;5.842;2023-03-23T01:54:50;11.90;99.90
39021;DHT22;25188;51.958;5.842;2023-03-23T01:57:18;11.90;99.90
39021;DHT22;25188;51.958;5.842;2023-03-23T01:59:47;11.90;99.90
39021;DHT22;25188;51.958;5.842;2023-03-23T02:02:15;11.90;99.90
39021;DHT22;25188;51.958;5.842;2023-03-23T02:04:41;11.90;99.90
39021;DHT22;25188;51.958;5.842;2023-03-23T02:07:08;11.90;99.90
39021;DHT22;25188;51.958;5.842;2023-03-23T02:09:33;11.90;99.90
39021;DHT22;25188;51.958;5.842;2023-03-23T02:11:59;11.90;99.90
39021;DHT22;25188;51.958;5.842;2023-03-23T02:14:26;12.00;99.90
39021;DHT22;25188;51.958;5.842;2023-03-23T02:28:48;12.00;99.90
39021;DHT22;25188;51.958;5.842;2023-03-23T02:33:57;12.10;99.90
39021;DHT22;25188;51.958;5.842;2023-03-23T02:36:41;12.10;99.90
39021;DHT22;25188;51.958;5.842;2023-03-23T02:39:39;12.10;99.90
39021;DHT22;25188;51.958;5.842;2023-03-23T02:42:13;12.10;99.90
39021;DHT22;25188;51.958;5.842;2023-03-23T02:44:43;12.10;99.90
39021;DHT22;25188;51.958;5.842;2023-03-23T02:47:21;12.10;99.90
39021;DHT22;25188;51.958;5.842;2023-03-23T02:49:50;12.20;99.90
39021;DHT22;25188;51.958;5.842;2023-03-23T02:52:24;12.20;99.90
39021;DHT22;25188;51.958;5.842;2023-03-23T02:54:52;12.20;99.90
39021;DHT22;25188;51.958;5.842;2023-03-23T02:57:18;12.20;99.90
39021;DHT22;25188;51.958;5.842;2023-03-23T02:59:45;12.20;99.90
39021;DHT22;25188;51.958;5.842;2023-03-23T03:02:18;12.20;99.90
39021;DHT22;25188;51.958;5.842;2023-03-23T03:07:49;12.20;99.90
39021;DHT22;25188;51.958;5.842;2023-03-23T03:10:57;12.20;99.90
39021;DHT22;25188;51.958;5.842;2023-03-23T03:13:43;12.20;99.90
39021;DHT22;25188;51.958;5.842;2023-03-23T03:19:11;12.20;99.90
39021;DHT22;25188;51.958;5.842;2023-03-23T03:21:43;12.30;99.90
39021;DHT22;25188;51.958;5.842;2023-03-23T03:24:10;12.30;99.90
39021;DHT22;25188;51.958;5.842;2023-03-23T03:26:43;12.30;99.90
39021;DHT22;25188;51.958;5.842;2023-03-23T03:29:14;12.30;99.90
39021;DHT22;25188;51.958;5.842;2023-03-23T03:31:43;12.30;99.90
39021;DHT22;25188;51.958;5.842;2023-03-23T03:34:11;12.30;99.90
39021;DHT22;25188;51.958;5.842;2023-03-23T03:36:37;12.30;99.90
39021;DHT22;25188;51.958;5.842;2023-03-23T03:39:07;12.40;99.90
39021;DHT22;25188;51.958;5.842;2023-03-23T03:41:35;12.40;99.90
39021;DHT22;25188;51.958;5.842;2023-03-23T03:44:05;12.40;99.90
39021;DHT22;25188;51.958;5.842;2023-03-23T03:46:33;12.40;99.90
39021;DHT22;25188;51.958;5.842;2023-03-23T03:49:02;12.40;99.90
39021;DHT22;25188;51.958;5.842;2023-03-23T03:51:29;12.40;99.90
39021;DHT22;25188;51.958;5.842;2023-03-23T03:53:55;12.50;99.90
39021;DHT22;25188;51.958;5.842;2023-03-23T03:56:22;12.40;99.90
39021;DHT22;25188;51.958;5.842;2023-03-23T03:58:49;12.40;99.90
39021;DHT22;25188;51.958;5.842;2023-03-23T04:01:16;12.40;99.90
39021;DHT22;25188;51.958;5.842;2023-03-23T04:03:43;12.40;99.90
39021;DHT22;25188;51.958;5.842;2023-03-23T04:06:10;12.50;99.90
39021;DHT22;25188;51.958;5.842;2023-03-23T04:08:38;12.50;99.90
39021;DHT22;25188;51.958;5.842;2023-03-23T04:11:10;12.50;99.90
39021;DHT22;25188;51.958;5.842;2023-03-23T04:13:37;12.50;99.90
39021;DHT22;25188;51.958;5.842;2023-03-23T04:16:04;12.50;99.90
39021;DHT22;25188;51.958;5.842;2023-03-23T04:18:29;12.50;99.90
39021;DHT22;25188;51.958;5.842;2023-03-23T04:20:57;12.50;99.90
39021;DHT22;25188;51.958;5.842;2023-03-23T04:23:26;12.50;99.90
39021;DHT22;25188;51.958;5.842;2023-03-23T04:25:52;12.50;99.90
39021;DHT22;25188;51.958;5.842;2023-03-23T04:28:23;12.50;99.90
39021;DHT22;25188;51.958;5.842;2023-03-23T04:30:51;12.60;99.90
39021;DHT22;25188;51.958;5.842;2023-03-23T04:33:24;12.60;99.90
39021;DHT22;25188;51.958;5.842;2023-03-23T04:35:56;12.60;99.90
39021;DHT22;25188;51.958;5.842;2023-03-23T04:38:22;12.70;99.90
39021;DHT22;25188;51.958;5.842;2023-03-23T04:40:50;12.80;99.90
39021;DHT22;25188;51.958;5.842;2023-03-23T04:43:21;12.80;99.90
39021;DHT22;25188;51.958;5.842;2023-03-23T04:45:56;12.80;99.90
39021;DHT22;25188;51.958;5.842;2023-03-23T04:48:23;12.80;99.90
39021;DHT22;25188;51.958;5.842;2023-03-23T04:50:49;12.90;99.90
39021;DHT22;25188;51.958;5.842;2023-03-23T04:53:16;12.90;99.90
39021;DHT22;25188;51.958;5.842;2023-03-23T04:55:43;12.90;99.90
39021;DHT22;25188;51.958;5.842;2023-03-23T04:58:09;12.90;99.90
39021;DHT22;25188;51.958;5.842;2023-03-23T05:00:37;12.90;99.90
39021;DHT22;25188;51.958;5.842;2023-03-23T05:03:03;12.90;99.90
39021;DHT22;25188;51.958;5.842;2023-03-23T05:05:29;12.90;99.90
39021;DHT22;25188;51.958;5.842;2023-03-23T05:07:56;12.90;99.90
39021;DHT22;25188;51.958;5.842;2023-03-23T05:10:22;12.90;99.90
39021;DHT22;25188;51.958;5.842;2023-03-23T05:12:48;12.90;99.90
39021;DHT22;25188;51.958;5.842;2023-03-23T05:15:15;12.90;99.90
39021;DHT22;25188;51.958;5.842;2023-03-23T05:17:41;12.90;99.90
39021;DHT22;25188;51.958;5.842;2023-03-23T05:20:11;12.90;99.90
39021;DHT22;25188;51.958;5.842;2023-03-23T05:22:38;12.80;99.90
39021;DHT22;25188;51.958;5.842;2023-03-23T05:25:04;12.80;99.90
39021;DHT22;25188;51.958;5.842;2023-03-23T05:27:31;12.90;99.90
39021;DHT22;25188;51.958;5.842;2023-03-23T05:29:58;12.90;99.90
39021;DHT22;25188;51.958;5.842;2023-03-23T05:32:27;12.90;99.90
39021;DHT22;25188;51.958;5.842;2023-03-23T05:34:57;12.90;99.90
39021;DHT22;25188;51.958;5.842;2023-03-23T05:37:25;12.80;99.90
39021;DHT22;25188;51.958;5.842;2023-03-23T05:39:52;12.90;99.90
39021;DHT22;25188;51.958;5.842;2023-03-23T05:42:22;12.90;99.90
39021;DHT22;25188;51.958;5.842;2023-03-23T05:44:48;12.90;99.90
39021;DHT22;25188;51.958;5.842;2023-03-23T05:47:14;12.90;99.90
39021;DHT22;25188;51.958;5.842;2023-03-23T05:49:40;12.90;99.90
39021;DHT22;25188;51.958;5.842;2023-03-23T05:52:05;12.90;99.90
39021;DHT22;25188;51.958;5.842;2023-03-23T05:54:31;12.90;99.90
39021;DHT22;25188;51.958;5.842;2023-03-23T05:56:57;12.80;99.90
39021;DHT22;25188;51.958;5.842;2023-03-23T05:59:23;12.90;99.90
39021;DHT22;25188;51.958;5.842;2023-03-23T06:01:48;12.90;99.90
39021;DHT22;25188;51.958;5.842;2023-03-23T06:04:15;12.80;99.90
39021;DHT22;25188;51.958;5.842;2023-03-23T06:06:42;12.80;99.90
39021;DHT22;25188;51.958;5.842;2023-03-23T06:09:09;12.90;99.90
39021;DHT22;25188;51.958;5.842;2023-03-23T06:11:35;12.90;99.90
39021;DHT22;25188;51.958;5.842;2023-03-23T06:14:01;12.90;99.90
39021;DHT22;25188;51.958;5.842;2023-03-23T06:16:27;12.90;99.90
39021;DHT22;25188;51.958;5.842;2023-03-23T06:18:52;12.90;99.90
39021;DHT22;25188;51.958;5.842;2023-03-23T06:21:18;12.90;99.90
39021;DHT22;25188;51.958;5.842;2023-03-23T06:23:45;12.90;99.90
39021;DHT22;25188;51.958;5.842;2023-03-23T06:26:12;12.90;99.90
39021;DHT22;25188;51.958;5.842;2023-03-23T06:28:40;13.00;99.90
39021;DHT22;25188;51.958;5.842;2023-03-23T06:31:06;13.00;99.90
39021;DHT22;25188;51.958;5.842;2023-03-23T06:33:36;13.10;99.90
39021;DHT22;25188;51.958;5.842;2023-03-23T06:36:03;13.00;99.90
39021;DHT22;25188;51.958;5.842;2023-03-23T06:38:30;13.00;99.90
39021;DHT22;25188;51.958;5.842;2023-03-23T06:40:57;13.10;99.90
39021;DHT22;25188;51.958;5.842;2023-03-23T06:43:23;13.10;99.90
39021;DHT22;25188;51.958;5.842;2023-03-23T06:45:50;13.00;99.90
39021;DHT22;25188;51.958;5.842;2023-03-23T06:48:16;13.00;99.90
39021;DHT22;25188;51.958;5.842;2023-03-23T06:50:44;13.10;99.90
39021;DHT22;25188;51.958;5.842;2023-03-23T06:53:10;13.10;99.90
39021;DHT22;25188;51.958;5.842;2023-03-23T06:55:36;13.00;99.70
39021;DHT22;25188;51.958;5.842;2023-03-23T06:58:03;13.10;99.90
39021;DHT22;25188;51.958;5.842;2023-03-23T07:00:29;13.10;99.90
39021;DHT22;25188;51.958;5.842;2023-03-23T07:02:58;13.10;99.90
39021;DHT22;25188;51.958;5.842;2023-03-23T07:05:24;13.10;99.90
39021;DHT22;25188;51.958;5.842;2023-03-23T07:07:53;13.10;99.90
39021;DHT22;25188;51.958;5.842;2023-03-23T07:10:22;13.00;99.90
39021;DHT22;25188;51.958;5.842;2023-03-23T07:12:48;13.10;99.90
39021;DHT22;25188;51.958;5.842;2023-03-23T07:15:13;13.10;99.90
39021;DHT22;25188;51.958;5.842;2023-03-23T07:17:39;13.10;99.90
39021;DHT22;25188;51.958;5.842;2023-03-23T07:20:06;13.10;99.90
39021;DHT22;25188;51.958;5.842;2023-03-23T07:22:32;13.10;99.90
39021;DHT22;25188;51.958;5.842;2023-03-23T07:24:58;13.10;99.90
39021;DHT22;25188;51.958;5.842;2023-03-23T07:27:24;13.10;99.90
39021;DHT22;25188;51.958;5.842;2023-03-23T07:29:50;13.10;99.90
39021;DHT22;25188;51.958;5.842;2023-03-23T07:32:16;13.10;99.90
39021;DHT22;25188;51.958;5.842;2023-03-23T07:34:43;13.10;99.90
39021;DHT22;25188;51.958;5.842;2023-03-23T07:37:09;13.10;99.90
39021;DHT22;25188;51.958;5.842;2023-03-23T07:39:35;13.10;99.60
39021;DHT22;25188;51.958;5.842;2023-03-23T07:42:03;13.10;99.10
39021;DHT22;25188;51.958;5.842;2023-03-23T07:44:29;13.10;98.70
39021;DHT22;25188;51.958;5.842;2023-03-23T07:46:55;13.00;98.60
39021;DHT22;25188;51.958;5.842;2023-03-23T07:49:21;13.00;98.40
39021;DHT22;25188;51.958;5.842;2023-03-23T07:51:47;13.00;98.50
39021;DHT22;25188;51.958;5.842;2023-03-23T07:54:13;12.90;98.80
39021;DHT22;25188;51.958;5.842;2023-03-23T07:56:40;12.90;99.80
39021;DHT22;25188;51.958;5.842;2023-03-23T07:59:07;12.80;99.90
39021;DHT22;25188;51.958;5.842;2023-03-23T08:01:32;12.70;99.90
39021;DHT22;25188;51.958;5.842;2023-03-23T08:03:58;12.70;99.90
39021;DHT22;25188;51.958;5.842;2023-03-23T08:06:25;12.50;99.90
39021;DHT22;25188;51.958;5.842;2023-03-23T08:08:51;12.50;99.90
39021;DHT22;25188;51.958;5.842;2023-03-23T08:11:18;12.40;99.90
39021;DHT22;25188;51.958;5.842;2023-03-23T08:13:44;12.40;99.90
39021;DHT22;25188;51.958;5.842;2023-03-23T08:16:10;12.40;99.90
39021;DHT22;25188;51.958;5.842;2023-03-23T08:18:37;12.40;99.90
39021;DHT22;25188;51.958;5.842;2023-03-23T08:21:05;12.40;99.90
39021;DHT22;25188;51.958;5.842;2023-03-23T08:23:32;12.40;99.90
39021;DHT22;25188;51.958;5.842;2023-03-23T08:25:58;12.40;99.90
39021;DHT22;25188;51.958;5.842;2023-03-23T08:28:24;12.40;99.90
39021;DHT22;25188;51.958;5.842;2023-03-23T08:30:50;12.40;99.90
39021;DHT22;25188;51.958;5.842;2023-03-23T08:33:16;12.40;99.90
39021;DHT22;25188;51.958;5.842;2023-03-23T08:35:42;12.40;99.90
39021;DHT22;25188;51.958;5.842;2023-03-23T08:38:10;12.50;99.90
39021;DHT22;25188;51.958;5.842;2023-03-23T08:40:37;12.50;99.90
39021;DHT22;25188;51.958;5.842;2023-03-23T08:43:03;12.50;99.90
39021;DHT22;25188;51.958;5.842;2023-03-23T08:45:29;12.60;99.90
39021;DHT22;25188;51.958;5.842;2023-03-23T08:47:55;12.60;99.90
39021;DHT22;25188;51.958;5.842;2023-03-23T08:50:24;12.70;99.90
39021;DHT22;25188;51.958;5.842;2023-03-23T08:52:51;12.70;99.90
39021;DHT22;25188;51.958;5.842;2023-03-23T08:55:18;12.70;99.90
39021;DHT22;25188;51.958;5.842;2023-03-23T08:57:44;12.80;99.90
39021;DHT22;25188;51.958;5.842;2023-03-23T09:00:13;12.80;99.90
39021;DHT22;25188;51.958;5.842;2023-03-23T09:02:45;12.80;99.90
39021;DHT22;25188;51.958;5.842;2023-03-23T09:05:12;12.80;99.90
39021;DHT22;25188;51.958;5.842;2023-03-23T09:07:40;12.80;99.90
39021;DHT22;25188;51.958;5.842;2023-03-23T09:10:07;12.80;99.90
39021;DHT22;25188;51.958;5.842;2023-03-23T09:12:33;12.80;99.90
39021;DHT22;25188;51.958;5.842;2023-03-23T09:14:59;12.80;99.90
39021;DHT22;25188;51.958;5.842;2023-03-23T09:17:26;12.90;99.90
39021;DHT22;25188;51.958;5.842;2023-03-23T09:19:52;12.90;99.90
39021;DHT22;25188;51.958;5.842;2023-03-23T09:22:17;13.10;99.90
39021;DHT22;25188;51.958;5.842;2023-03-23T09:24:45;13.10;99.90
39021;DHT22;25188;51.958;5.842;2023-03-23T09:27:11;13.20;99.90
39021;DHT22;25188;51.958;5.842;2023-03-23T09:29:37;13.30;99.90
39021;DHT22;25188;51.958;5.842;2023-03-23T09:32:03;13.30;99.70
39021;DHT22;25188;51.958;5.842;2023-03-23T09:34:29;13.50;99.50
39021;DHT22;25188;51.958;5.842;2023-03-23T09:36:55;13.50;99.60
39021;DHT22;25188;51.958;5.842;2023-03-23T09:39:20;13.60;99.00
39021;DHT22;25188;51.958;5.842;2023-03-23T09:44:30;13.80;98.00
39021;DHT22;25188;51.958;5.842;2023-03-23T09:47:21;13.80;97.50
39021;DHT22;25188;51.958;5.842;2023-03-23T09:49:57;13.80;96.30
39021;DHT22;25188;51.958;5.842;2023-03-23T09:55:03;13.70;95.20
39021;DHT22;25188;51.958;5.842;2023-03-23T09:57:47;13.60;95.50
39021;DHT22;25188;51.958;5.842;2023-03-23T10:00:18;13.60;95.90
39021;DHT22;25188;51.958;5.842;2023-03-23T10:03:06;13.70;95.20
39021;DHT22;25188;51.958;5.842;2023-03-23T10:05:41;13.80;95.70
39021;DHT22;25188;51.958;5.842;2023-03-23T10:08:14;14.00;95.90
39021;DHT22;25188;51.958;5.842;2023-03-23T10:16:08;14.70;93.80
39021;DHT22;25188;51.958;5.842;2023-03-23T10:18:43;15.00;93.30
39021;DHT22;25188;51.958;5.842;2023-03-23T10:21:14;15.20;92.50
39021;DHT22;25188;51.958;5.842;2023-03-23T10:23:47;15.60;92.80
39021;DHT22;25188;51.958;5.842;2023-03-23T10:26:30;15.80;91.50
39021;DHT22;25188;51.958;5.842;2023-03-23T10:29:04;16.10;91.30
39021;DHT22;25188;51.958;5.842;2023-03-23T10:31:42;16.30;90.80
39021;DHT22;25188;51.958;5.842;2023-03-23T10:39:52;17.10;84.70
39021;DHT22;25188;51.958;5.842;2023-03-23T10:42:37;17.20;84.50
39021;DHT22;25188;51.958;5.842;2023-03-23T10:45:15;17.40;81.30
39021;DHT22;25188;51.958;5.842;2023-03-23T10:47:52;17.60;80.50
39021;DHT22;25188;51.958;5.842;2023-03-23T10:50:27;17.70;78.20
39021;DHT22;25188;51.958;5.842;2023-03-23T10:52:57;18.10;77.60
39021;DHT22;25188;51.958;5.842;2023-03-23T10:55:24;18.40;75.90
39021;DHT22;25188;51.958;5.842;2023-03-23T10:58:05;18.70;75.50
39021;DHT22;25188;51.958;5.842;2023-03-23T11:00:31;19.00;73.20
39021;DHT22;25188;51.958;5.842;2023-03-23T11:03:22;19.40;71.90
39021;DHT22;25188;51.958;5.842;2023-03-23T11:06:00;19.60;70.40
39021;DHT22;25188;51.958;5.842;2023-03-23T11:08:48;19.90;68.90
39021;DHT22;25188;51.958;5.842;2023-03-23T11:11:59;20.30;68.10
39021;DHT22;25188;51.958;5.842;2023-03-23T11:14:35;20.80;65.90
39021;DHT22;25188;51.958;5.842;2023-03-23T11:17:05;20.80;62.80
39021;DHT22;25188;51.958;5.842;2023-03-23T11:19:36;20.70;61.50
39021;DHT22;25188;51.958;5.842;2023-03-23T11:22:20;20.60;63.10
39021;DHT22;25188;51.958;5.842;2023-03-23T11:24:50;21.10;62.60
39021;DHT22;25188;51.958;5.842;2023-03-23T11:27:18;21.70;62.20
39021;DHT22;25188;51.958;5.842;2023-03-23T11:30:11;22.00;60.30
39021;DHT22;25188;51.958;5.842;2023-03-23T11:32:44;21.80;57.80
39021;DHT22;25188;51.958;5.842;2023-03-23T11:35:37;21.80;58.30
39021;DHT22;25188;51.958;5.842;2023-03-23T11:38:02;22.20;58.00
39021;DHT22;25188;51.958;5.842;2023-03-23T11:40:31;22.40;56.50
39021;DHT22;25188;51.958;5.842;2023-03-23T11:43:17;22.00;55.40
39021;DHT22;25188;51.958;5.842;2023-03-23T11:56:39;18.70;61.90
39021;DHT22;25188;51.958;5.842;2023-03-23T11:59:25;18.40;63.00
39021;DHT22;25188;51.958;5.842;2023-03-23T12:02:03;18.10;63.60
39021;DHT22;25188;51.958;5.842;2023-03-23T12:04:40;17.80;64.90
39021;DHT22;25188;51.958;5.842;2023-03-23T12:09:58;17.40;66.70
39021;DHT22;25188;51.958;5.842;2023-03-23T12:12:44;17.20;66.90
39021;DHT22;25188;51.958;5.842;2023-03-23T12:23:48;16.60;73.90
39021;DHT22;25188;51.958;5.842;2023-03-23T12:26:18;16.80;73.80
39021;DHT22;25188;51.958;5.842;2023-03-23T12:29:08;17.40;74.30
39021;DHT22;25188;51.958;5.842;2023-03-23T12:47:55;17.80;68.00
39021;DHT22;25188;51.958;5.842;2023-03-23T12:50:35;17.60;67.70
39021;DHT22;25188;51.958;5.842;2023-03-23T12:53:25;17.40;67.90
39021;DHT22;25188;51.958;5.842;2023-03-23T12:56:18;17.20;68.30
39021;DHT22;25188;51.958;5.842;2023-03-23T12:58:48;16.90;73.10
39021;DHT22;25188;51.958;5.842;2023-03-23T13:01:24;16.50;78.10
39021;DHT22;25188;51.958;5.842;2023-03-23T13:04:11;15.90;80.20
39021;DHT22;25188;51.958;5.842;2023-03-23T13:06:38;15.40;84.90
39021;DHT22;25188;51.958;5.842;2023-03-23T13:09:08;14.90;86.10
39021;DHT22;25188;51.958;5.842;2023-03-23T13:11:40;14.60;87.10
39021;DHT22;25188;51.958;5.842;2023-03-23T13:24:27;13.90;91.70
39021;DHT22;25188;51.958;5.842;2023-03-23T13:26:55;13.80;92.20
39021;DHT22;25188;51.958;5.842;2023-03-23T13:29:24;14.20;93.50
39021;DHT22;25188;51.958;5.842;2023-03-23T13:31:50;14.90;94.40
39021;DHT22;25188;51.958;5.842;2023-03-23T13:34:29;15.40;93.90
39021;DHT22;25188;51.958;5.842;2023-03-23T13:39:32;17.10;94.00
39021;DHT22;25188;51.958;5.842;2023-03-23T13:49:58;19.20;84.30
39021;DHT22;25188;51.958;5.842;2023-03-23T14:03:11;18.10;79.10
39021;DHT22;25188;51.958;5.842;2023-03-23T14:08:20;17.50;79.60
39021;DHT22;25188;51.958;5.842;2023-03-23T14:10:59;17.20;79.60
39021;DHT22;25188;51.958;5.842;2023-03-23T14:13:33;17.00;80.70
39021;DHT22;25188;51.958;5.842;2023-03-23T14:18:35;16.50;82.90
39021;DHT22;25188;51.958;5.842;2023-03-23T14:21:02;16.20;84.10
39021;DHT22;25188;51.958;5.842;2023-03-23T14:23:31;16.00;86.10
39021;DHT22;25188;51.958;5.842;2023-03-23T14:26:15;15.80;86.90
39021;DHT22;25188;51.958;5.842;2023-03-23T14:28:44;15.70;88.10
39021;DHT22;25188;51.958;5.842;2023-03-23T14:31:22;15.60;88.20
39021;DHT22;25188;51.958;5.842;2023-03-23T14:33:49;15.70;89.00
39021;DHT22;25188;51.958;5.842;2023-03-23T14:36:20;16.30;90.20
39021;DHT22;25188;51.958;5.842;2023-03-23T14:38:46;17.00;90.20
39021;DHT22;25188;51.958;5.842;2023-03-23T14:41:12;17.90;89.70
39021;DHT22;25188;51.958;5.842;2023-03-23T14:43:38;18.90;87.50
39021;DHT22;25188;51.958;5.842;2023-03-23T14:46:10;19.80;85.00
39021;DHT22;25188;51.958;5.842;2023-03-23T14:48:38;20.70;77.70
39021;DHT22;25188;51.958;5.842;2023-03-23T14:51:05;21.30;76.90
39021;DHT22;25188;51.958;5.842;2023-03-23T14:53:38;21.90;72.30
39021;DHT22;25188;51.958;5.842;2023-03-23T14:56:12;22.30;68.40
39021;DHT22;25188;51.958;5.842;2023-03-23T14:58:38;22.80;66.40
39021;DHT22;25188;51.958;5.842;2023-03-23T15:01:10;23.10;62.80
39021;DHT22;25188;51.958;5.842;2023-03-23T15:03:52;23.40;59.80
39021;DHT22;25188;51.958;5.842;2023-03-23T15:06:21;23.60;57.70
39021;DHT22;25188;51.958;5.842;2023-03-23T15:08:48;23.70;56.50
39021;DHT22;25188;51.958;5.842;2023-03-23T15:13:52;23.90;55.60
39021;DHT22;25188;51.958;5.842;2023-03-23T15:16:26;24.00;55.40
39021;DHT22;25188;51.958;5.842;2023-03-23T15:19:00;24.00;54.90
39021;DHT22;25188;51.958;5.842;2023-03-23T15:21:35;24.10;55.20
39021;DHT22;25188;51.958;5.842;2023-03-23T15:24:02;24.30;54.90
39021;DHT22;25188;51.958;5.842;2023-03-23T15:26:48;24.40;54.80
39021;DHT22;25188;51.958;5.842;2023-03-23T15:29:18;24.10;53.40
39021;DHT22;25188;51.958;5.842;2023-03-23T15:31:48;23.70;53.40
39021;DHT22;25188;51.958;5.842;2023-03-23T15:34:30;23.20;54.10
39021;DHT22;25188;51.958;5.842;2023-03-23T15:37:03;22.80;54.70
39021;DHT22;25188;51.958;5.842;2023-03-23T15:39:31;22.80;55.40
39021;DHT22;25188;51.958;5.842;2023-03-23T15:41:58;22.90;55.20
39021;DHT22;25188;51.958;5.842;2023-03-23T15:44:27;22.70;55.00
39021;DHT22;25188;51.958;5.842;2023-03-23T15:47:15;22.40;55.80
39021;DHT22;25188;51.958;5.842;2023-03-23T15:49:43;22.20;56.20
39021;DHT22;25188;51.958;5.842;2023-03-23T15:52:11;21.90;56.50
39021;DHT22;25188;51.958;5.842;2023-03-23T15:54:37;21.60;56.60
39021;DHT22;25188;51.958;5.842;2023-03-23T15:57:03;21.20;57.30
39021;DHT22;25188;51.958;5.842;2023-03-23T15:59:28;20.90;58.00
39021;DHT22;25188;51.958;5.842;2023-03-23T16:01:54;20.60;58.50
39021;DHT22;25188;51.958;5.842;2023-03-23T16:04:20;20.30;59.20
39021;DHT22;25188;51.958;5.842;2023-03-23T16:06:49;20.00;60.10
39021;DHT22;25188;51.958;5.842;2023-03-23T16:09:18;19.90;60.80
39021;DHT22;25188;51.958;5.842;2023-03-23T16:11:44;19.80;61.50
39021;DHT22;25188;51.958;5.842;2023-03-23T16:14:10;19.90;61.70
39021;DHT22;25188;51.958;5.842;2023-03-23T16:16:38;20.00;61.20
39021;DHT22;25188;51.958;5.842;2023-03-23T16:19:05;20.00;61.60
39021;DHT22;25188;51.958;5.842;2023-03-23T16:21:31;20.10;61.40
39021;DHT22;25188;51.958;5.842;2023-03-23T16:23:58;20.20;61.10
39021;DHT22;25188;51.958;5.842;2023-03-23T16:26:24;20.40;61.10
39021;DHT22;25188;51.958;5.842;2023-03-23T16:28:50;20.60;59.90
39021;DHT22;25188;51.958;5.842;2023-03-23T16:31:16;20.70;59.50
39021;DHT22;25188;51.958;5.842;2023-03-23T16:33:41;20.70;58.60
39021;DHT22;25188;51.958;5.842;2023-03-23T16:36:10;20.60;58.70
39021;DHT22;25188;51.958;5.842;2023-03-23T16:38:37;20.50;59.30
39021;DHT22;25188;51.958;5.842;2023-03-23T16:41:03;20.50;59.70
39021;DHT22;25188;51.958;5.842;2023-03-23T16:43:29;20.40;60.00
39021;DHT22;25188;51.958;5.842;2023-03-23T16:45:56;20.40;60.10
39021;DHT22;25188;51.958;5.842;2023-03-23T16:48:23;20.20;59.80
39021;DHT22;25188;51.958;5.842;2023-03-23T16:50:50;19.80;60.10
39021;DHT22;25188;51.958;5.842;2023-03-23T16:53:16;19.40;61.00
39021;DHT22;25188;51.958;5.842;2023-03-23T16:55:42;18.90;61.50
39021;DHT22;25188;51.958;5.842;2023-03-23T16:58:15;18.50;62.70
39021;DHT22;25188;51.958;5.842;2023-03-23T17:00:42;18.10;63.70
39021;DHT22;25188;51.958;5.842;2023-03-23T17:03:08;17.90;64.40
39021;DHT22;25188;51.958;5.842;2023-03-23T17:05:36;17.70;65.20
39021;DHT22;25188;51.958;5.842;2023-03-23T17:08:03;17.50;65.90
39021;DHT22;25188;51.958;5.842;2023-03-23T17:10:29;17.30;66.60
39021;DHT22;25188;51.958;5.842;2023-03-23T17:12:55;17.20;67.60
39021;DHT22;25188;51.958;5.842;2023-03-23T17:15:21;17.10;68.20
39021;DHT22;25188;51.958;5.842;2023-03-23T17:17:48;16.90;68.60
39021;DHT22;25188;51.958;5.842;2023-03-23T17:20:14;16.90;69.20
39021;DHT22;25188;51.958;5.842;2023-03-23T17:22:40;16.80;69.70
39021;DHT22;25188;51.958;5.842;2023-03-23T17:25:07;16.70;70.40
39021;DHT22;25188;51.958;5.842;2023-03-23T17:27:34;16.60;70.80
39021;DHT22;25188;51.958;5.842;2023-03-23T17:30:00;16.50;71.60
39021;DHT22;25188;51.958;5.842;2023-03-23T17:32:26;16.40;71.60
39021;DHT22;25188;51.958;5.842;2023-03-23T17:34:52;16.30;72.30
39021;DHT22;25188;51.958;5.842;2023-03-23T17:37:20;16.20;72.30
39021;DHT22;25188;51.958;5.842;2023-03-23T17:39:46;16.20;72.90
39021;DHT22;25188;51.958;5.842;2023-03-23T17:42:12;16.10;72.90